Time,TemperatureF,DewpointF,PressureIn,WindDirection,WindDirectionDegrees,WindSpeedMPH,WindSpeedGustMPH,Humidity,HourlyPrecipIn,Conditions,Clouds,dailyrainin,SoftwareType,DateUTC
2013-02-12 00:00:00,39.8,37.7,30.09,WNW,287,0.0,0.0,92,0.00,,,0.00,Wunderground v.1.15,2013-02-12 05:00:00,
2013-02-12 00:04:00,39.8,37.7,30.10,WNW,287,0.0,0.0,92,0.00,,,0.00,Wunderground v.1.15,2013-02-12 05:04:00,
2013-02-12 00:10:00,39.7,37.6,30.11,WNW,287,0.0,0.0,92,0.00,,,0.00,Wunderground v.1.15,2013-02-12 05:10:00,
2013-02-12 00:15:00,39.7,37.6,30.11,WNW,287,0.0,1.0,92,0.00,,,0.00,Wunderground v.1.15,2013-02-12 05:15:00,
2013-02-12 00:20:00,39.6,37.5,30.11,WNW,287,0.0,0.0,92,0.00,,,0.00,Wunderground v.1.15,2013-02-12 05:20:00,
2013-02-12 00:25:00,39.6,37.5,30.10,WNW,287,0.0,0.0,92,0.00,,,0.00,Wunderground v.1.15,2013-02-12 05:25:00,
2013-02-12 00:30:00,39.5,37.4,30.11,WNW,287,0.0,0.0,92,0.00,,,0.00,Wunderground v.1.15,2013-02-12 05:30:00,
2013-02-12 00:40:00,39.4,37.3,30.11,WNW,287,0.0,1.0,92,0.00,,,0.00,Wunderground v.1.15,2013-02-12 05:40:00,
2013-02-12 00:45:00,39.4,37.3,30.10,WNW,287,0.0,1.0,92,0.00,,,0.00,Wunderground v.1.15,2013-02-12 05:45:00,
2013-02-12 00:54:00,39.3,37.2,30.10,WNW,287,0.0,0.0,92,0.00,,,0.00,Wunderground v.1.15,2013-02-12 05:54:00,
2013-02-12 01:00:00,39.1,37.0,30.11,WNW,287,0.0,0.0,92,0.00,,,0.00,Wunderground v.1.15,2013-02-12 06:00:00,
2013-02-12 01:10:00,38.9,36.8,30.12,WNW,287,0.0,0.0,92,0.00,,,0.00,Wunderground v.1.15,2013-02-12 06:10:00,
2013-02-12 01:15:00,38.8,36.7,30.11,WNW,287,0.0,0.0,92,0.00,,,0.00,Wunderground v.1.15,2013-02-12 06:15:00,
2013-02-12 01:20:00,38.6,36.5,30.11,WNW,287,0.0,0.0,92,0.00,,,0.00,Wunderground v.1.15,2013-02-12 06:20:00,
2013-02-12 01:25:00,38.5,36.4,30.11,WNW,287,0.0,0.0,92,0.00,,,0.00,Wunderground v.1.15,2013-02-12 06:25:00,
2013-02-12 01:30:00,38.4,36.3,30.11,WNW,287,0.0,0.0,92,0.00,,,0.00,Wunderground v.1.15,2013-02-12 06:30:00,
2013-02-12 01:39:00,38.4,36.3,30.10,WNW,287,0.0,0.0,92,0.00,,,0.00,Wunderground v.1.15,2013-02-12 06:39:00,
2013-02-12 01:49:00,38.3,36.5,30.09,WNW,287,0.0,0.0,93,0.00,,,0.00,Wunderground v.1.15,2013-02-12 06:49:00,
2013-02-12 01:55:00,38.3,36.5,30.11,WNW,287,0.0,0.0,93,0.00,,,0.00,Wunderground v.1.15,2013-02-12 06:55:00,
2013-02-12 02:00:00,38.3,36.7,30.11,WNW,287,0.0,0.0,94,0.00,,,0.00,Wunderground v.1.15,2013-02-12 07:00:00,
2013-02-12 02:10:00,38.3,36.7,30.11,WNW,287,0.0,0.0,94,0.00,,,0.00,Wunderground v.1.15,2013-02-12 07:10:00,
2013-02-12 02:15:00,38.4,36.8,30.11,WNW,287,0.0,0.0,94,0.00,,,0.00,Wunderground v.1.15,2013-02-12 07:15:00,
2013-02-12 02:20:00,38.4,36.8,30.11,WNW,287,0.0,0.0,94,0.00,,,0.00,Wunderground v.1.15,2013-02-12 07:20:00,
2013-02-12 02:29:00,38.4,36.8,30.12,WNW,287,0.0,0.0,94,0.00,,,0.00,Wunderground v.1.15,2013-02-12 07:29:00,
2013-02-12 02:34:00,38.4,36.8,30.11,WNW,287,0.0,0.0,94,0.00,,,0.00,Wunderground v.1.15,2013-02-12 07:34:00,
2013-02-12 02:40:00,38.4,36.8,30.11,WNW,287,0.0,0.0,94,0.00,,,0.00,Wunderground v.1.15,2013-02-12 07:40:00,
2013-02-12 02:45:00,38.5,36.9,30.11,WNW,287,0.0,0.0,94,0.00,,,0.00,Wunderground v.1.15,2013-02-12 07:45:00,
2013-02-12 02:55:00,38.5,36.9,30.13,WNW,287,0.0,0.0,94,0.00,,,0.00,Wunderground v.1.15,2013-02-12 07:55:00,
2013-02-12 03:00:00,38.4,36.8,30.13,WNW,287,0.0,0.0,94,0.00,,,0.00,Wunderground v.1.15,2013-02-12 08:00:00,
2013-02-12 03:10:00,38.5,36.9,30.13,WNW,287,0.0,0.0,94,0.00,,,0.00,Wunderground v.1.15,2013-02-12 08:10:00,
2013-02-12 03:19:00,38.4,36.8,30.11,WNW,287,0.0,0.0,94,0.00,,,0.00,Wunderground v.1.15,2013-02-12 08:19:00,
2013-02-12 03:29:00,38.5,36.9,30.11,WNW,287,0.0,0.0,94,0.00,,,0.00,Wunderground v.1.15,2013-02-12 08:29:00,
2013-02-12 03:35:00,38.5,36.9,30.10,WNW,287,0.0,0.0,94,0.00,,,0.00,Wunderground v.1.15,2013-02-12 08:35:00,
2013-02-12 03:40:00,38.5,37.2,30.10,WNW,287,0.0,0.0,95,0.00,,,0.00,Wunderground v.1.15,2013-02-12 08:40:00,
2013-02-12 03:45:00,38.5,37.2,30.10,WNW,287,0.0,0.0,95,0.00,,,0.00,Wunderground v.1.15,2013-02-12 08:45:00,
2013-02-12 03:50:00,38.5,37.2,30.11,WNW,287,0.0,0.0,95,0.00,,,0.00,Wunderground v.1.15,2013-02-12 08:50:00,
2013-02-12 03:55:00,38.6,37.3,30.12,WNW,287,0.0,0.0,95,0.00,,,0.00,Wunderground v.1.15,2013-02-12 08:55:00,
2013-02-12 04:00:00,38.6,37.3,30.13,WNW,287,0.0,0.0,95,0.00,,,0.00,Wunderground v.1.15,2013-02-12 09:00:00,
2013-02-12 04:09:00,38.7,37.4,30.11,WNW,287,0.0,0.0,95,0.00,,,0.00,Wunderground v.1.15,2013-02-12 09:09:00,
2013-02-12 04:14:00,38.7,37.4,30.10,WNW,287,0.0,0.0,95,0.00,,,0.00,Wunderground v.1.15,2013-02-12 09:14:00,
2013-02-12 04:19:00,38.7,37.4,30.10,WNW,287,0.0,0.0,95,0.00,,,0.00,Wunderground v.1.15,2013-02-12 09:19:00,
2013-02-12 04:25:00,38.7,37.4,30.10,WNW,287,0.0,0.0,95,0.00,,,0.00,Wunderground v.1.15,2013-02-12 09:25:00,
2013-02-12 04:30:00,38.8,37.5,30.10,WNW,287,0.0,0.0,95,0.00,,,0.00,Wunderground v.1.15,2013-02-12 09:30:00,
2013-02-12 04:40:00,38.8,37.5,30.10,WNW,287,0.0,1.0,95,0.00,,,0.00,Wunderground v.1.15,2013-02-12 09:40:00,
2013-02-12 04:45:00,38.7,37.4,30.11,WNW,287,0.0,1.0,95,0.00,,,0.00,Wunderground v.1.15,2013-02-12 09:45:00,
2013-02-12 04:50:00,38.7,37.4,30.11,WNW,287,0.0,0.0,95,0.00,,,0.00,Wunderground v.1.15,2013-02-12 09:50:00,
2013-02-12 04:55:00,38.7,37.4,30.11,WNW,287,0.0,0.0,95,0.00,,,0.00,Wunderground v.1.15,2013-02-12 09:55:00,
2013-02-12 05:00:00,38.7,37.1,30.12,WNW,287,0.0,0.0,94,0.00,,,0.00,Wunderground v.1.15,2013-02-12 10:00:00,
2013-02-12 05:10:00,38.6,37.0,30.12,WNW,287,0.0,0.0,94,0.00,,,0.00,Wunderground v.1.15,2013-02-12 10:10:00,
2013-02-12 05:19:00,38.5,36.9,30.12,WNW,287,0.0,0.0,94,0.00,,,0.00,Wunderground v.1.15,2013-02-12 10:19:00,
2013-02-12 05:25:00,38.4,36.8,30.12,WNW,287,0.0,0.0,94,0.00,,,0.00,Wunderground v.1.15,2013-02-12 10:25:00,
2013-02-12 05:30:00,38.4,36.6,30.12,WNW,287,0.0,1.0,93,0.00,,,0.00,Wunderground v.1.15,2013-02-12 10:30:00,
2013-02-12 05:35:00,38.3,36.5,30.11,WNW,287,0.0,1.0,93,0.00,,,0.00,Wunderground v.1.15,2013-02-12 10:35:00,
2013-02-12 05:40:00,38.2,36.4,30.09,NNE,25,1.0,2.0,93,0.00,,,0.00,Wunderground v.1.15,2013-02-12 10:40:00,
2013-02-12 05:45:00,38.2,35.8,30.09,NE,44,1.0,2.0,91,0.00,,,0.00,Wunderground v.1.15,2013-02-12 10:45:00,
2013-02-12 05:50:00,38.4,35.2,30.11,WNW,283,1.0,1.0,88,0.00,,,0.00,Wunderground v.1.15,2013-02-12 10:50:00,
2013-02-12 05:55:00,38.6,35.4,30.11,NNE,26,0.0,1.0,88,0.00,,,0.00,Wunderground v.1.15,2013-02-12 10:55:00,
2013-02-12 06:04:00,38.7,35.7,30.12,NNE,26,0.0,0.0,89,0.00,,,0.00,Wunderground v.1.15,2013-02-12 11:04:00,
2013-02-12 06:10:00,38.8,36.1,30.13,NNE,26,0.0,0.0,90,0.00,,,0.00,Wunderground v.1.15,2013-02-12 11:10:00,
2013-02-12 06:20:00,38.9,36.2,30.12,NNE,26,0.0,0.0,90,0.00,,,0.00,Wunderground v.1.15,2013-02-12 11:20:00,
2013-02-12 06:25:00,38.9,36.2,30.12,NNE,26,0.0,0.0,90,0.00,,,0.00,Wunderground v.1.15,2013-02-12 11:25:00,
2013-02-12 06:30:00,38.9,36.2,30.12,NNE,26,0.0,0.0,90,0.00,,,0.00,Wunderground v.1.15,2013-02-12 11:30:00,
2013-02-12 06:35:00,38.9,36.2,30.12,NNE,26,0.0,0.0,90,0.00,,,0.00,Wunderground v.1.15,2013-02-12 11:35:00,
2013-02-12 06:40:00,38.9,36.5,30.12,NNE,26,0.0,0.0,91,0.00,,,0.00,Wunderground v.1.15,2013-02-12 11:40:00,
2013-02-12 06:49:00,38.7,36.0,30.15,NNE,26,0.0,0.0,90,0.00,,,0.00,Wunderground v.1.15,2013-02-12 11:49:00,
2013-02-12 06:54:00,38.5,35.8,30.15,NNE,26,0.0,0.0,90,0.00,,,0.00,Wunderground v.1.15,2013-02-12 11:54:00,
2013-02-12 07:00:00,38.4,35.7,30.15,NNE,26,0.0,0.0,90,0.00,,,0.00,Wunderground v.1.15,2013-02-12 12:00:00,
2013-02-12 07:10:00,38.0,35.0,30.14,NNE,26,0.0,0.0,89,0.00,,,0.00,Wunderground v.1.15,2013-02-12 12:10:00,
2013-02-12 07:15:00,37.7,34.8,30.14,NNE,26,0.0,0.0,89,0.00,,,0.00,Wunderground v.1.15,2013-02-12 12:15:00,
2013-02-12 07:20:00,37.3,34.1,30.14,NNE,26,0.0,0.0,88,0.00,,,0.00,Wunderground v.1.15,2013-02-12 12:20:00,
2013-02-12 07:25:00,37.0,34.1,30.14,NNE,26,0.0,0.0,89,0.00,,,0.00,Wunderground v.1.15,2013-02-12 12:25:00,
2013-02-12 07:30:00,36.5,33.6,30.14,NNE,26,0.0,0.0,89,0.00,,,0.00,Wunderground v.1.15,2013-02-12 12:30:00,
2013-02-12 07:39:00,36.0,33.4,30.15,NNE,26,0.0,0.0,90,0.00,,,0.00,Wunderground v.1.15,2013-02-12 12:39:00,
2013-02-12 07:45:00,35.8,33.2,30.15,NNE,26,0.0,0.0,90,0.00,,,0.00,Wunderground v.1.15,2013-02-12 12:45:00,
2013-02-12 07:50:00,35.7,33.1,30.15,NNE,26,0.0,0.0,90,0.00,,,0.00,Wunderground v.1.15,2013-02-12 12:50:00,
2013-02-12 07:55:00,35.5,33.1,30.15,NNE,26,0.0,0.0,91,0.00,,,0.00,Wunderground v.1.15,2013-02-12 12:55:00,
2013-02-12 08:00:00,35.3,32.9,30.14,NNE,26,0.0,0.0,91,0.00,,,0.00,Wunderground v.1.15,2013-02-12 13:00:00,
2013-02-12 08:09:00,35.0,32.9,30.14,NNE,26,0.0,0.0,92,0.00,,,0.00,Wunderground v.1.15,2013-02-12 13:09:00,
2013-02-12 08:14:00,34.9,32.8,30.14,NNE,26,0.0,0.0,92,0.00,,,0.00,Wunderground v.1.15,2013-02-12 13:14:00,
2013-02-12 08:19:00,35.0,33.2,30.14,NNE,26,0.0,0.0,93,0.00,,,0.00,Wunderground v.1.15,2013-02-12 13:19:00,
2013-02-12 08:24:00,35.1,33.5,30.14,NNE,26,0.0,0.0,94,0.00,,,0.00,Wunderground v.1.15,2013-02-12 13:24:00,
2013-02-12 08:30:00,35.3,33.7,30.14,NNE,26,0.0,0.0,94,0.00,,,0.00,Wunderground v.1.15,2013-02-12 13:30:00,
2013-02-12 08:40:00,36.4,35.1,30.13,East,88,0.0,0.0,95,0.00,,,0.00,Wunderground v.1.15,2013-02-12 13:40:00,
2013-02-12 08:45:00,36.6,35.6,30.13,East,88,0.0,0.0,96,0.00,,,0.00,Wunderground v.1.15,2013-02-12 13:45:00,
2013-02-12 08:50:00,37.0,36.0,30.12,NNE,21,0.0,2.0,96,0.00,,,0.00,Wunderground v.1.15,2013-02-12 13:50:00,
2013-02-12 08:55:00,37.6,36.6,30.11,NNE,21,1.0,2.0,96,0.00,,,0.00,Wunderground v.1.15,2013-02-12 13:55:00,
2013-02-12 09:00:00,38.5,36.9,30.12,NE,36,1.0,1.0,94,0.00,,,0.00,Wunderground v.1.15,2013-02-12 14:00:00,
2013-02-12 09:09:00,40.7,36.2,30.11,NNW,342,1.0,5.0,84,0.00,,,0.00,Wunderground v.1.15,2013-02-12 14:09:00,
2013-02-12 09:14:00,42.1,36.7,30.11,West,269,3.0,5.0,81,0.00,,,0.00,Wunderground v.1.15,2013-02-12 14:14:00,
2013-02-12 09:19:00,43.2,37.1,30.11,North,4,3.0,4.0,79,0.00,,,0.00,Wunderground v.1.15,2013-02-12 14:19:00,
2013-02-12 09:25:00,44.2,36.8,30.11,North,10,3.0,5.0,75,0.00,,,0.00,Wunderground v.1.15,2013-02-12 14:25:00,
2013-02-12 09:30:00,45.0,37.2,30.11,NE,40,4.0,4.0,74,0.00,,,0.00,Wunderground v.1.15,2013-02-12 14:30:00,
2013-02-12 09:35:00,45.7,36.8,30.11,NW,323,4.0,6.0,71,0.00,,,0.00,Wunderground v.1.15,2013-02-12 14:35:00,
2013-02-12 09:45:00,47.0,35.8,30.11,NW,304,5.0,8.0,65,0.00,,,0.00,Wunderground v.1.15,2013-02-12 14:45:00,
2013-02-12 09:50:00,47.6,36.8,30.12,ENE,58,4.0,5.0,66,0.00,,,0.00,Wunderground v.1.15,2013-02-12 14:50:00,
2013-02-12 10:00:00,48.7,37.1,30.12,North,7,4.0,4.0,64,0.00,,,0.00,Wunderground v.1.15,2013-02-12 15:00:00,
2013-02-12 10:10:00,49.0,36.1,30.10,NW,308,6.0,6.0,61,0.00,,,0.00,Wunderground v.1.15,2013-02-12 15:10:00,
2013-02-12 10:20:00,49.3,36.8,30.09,North,352,6.0,8.0,62,0.00,,,0.00,Wunderground v.1.15,2013-02-12 15:20:00,
2013-02-12 10:25:00,49.6,37.1,30.08,NNE,29,6.0,8.0,62,0.00,,,0.00,Wunderground v.1.15,2013-02-12 15:25:00,
2013-02-12 10:30:00,50.0,35.4,30.07,ENE,60,6.0,6.0,57,0.00,,,0.00,Wunderground v.1.15,2013-02-12 15:30:00,
2013-02-12 10:35:00,50.2,36.0,30.07,NNW,336,6.0,6.0,58,0.00,,,0.00,Wunderground v.1.15,2013-02-12 15:35:00,
2013-02-12 10:40:00,50.5,36.3,30.08,NNW,333,4.0,7.0,58,0.00,,,0.00,Wunderground v.1.15,2013-02-12 15:40:00,
2013-02-12 10:50:00,50.9,35.7,30.08,NNE,16,5.0,5.0,56,0.00,,,0.00,Wunderground v.1.15,2013-02-12 15:50:00,
2013-02-12 11:00:00,51.3,36.1,30.07,NNE,32,4.0,4.0,56,0.00,,,0.00,Wunderground v.1.15,2013-02-12 16:00:00,
2013-02-12 11:10:00,50.0,34.5,30.07,NNE,17,4.0,5.0,55,0.00,,,0.00,Wunderground v.1.15,2013-02-12 16:10:00,
2013-02-12 11:15:00,50.1,34.1,30.07,North,5,4.0,5.0,54,0.00,,,0.00,Wunderground v.1.15,2013-02-12 16:15:00,
2013-02-12 11:20:00,50.1,35.0,30.07,NNE,15,4.0,4.0,56,0.00,,,0.00,Wunderground v.1.15,2013-02-12 16:20:00,
2013-02-12 11:30:00,50.3,33.8,30.09,ESE,102,3.0,3.0,53,0.00,,,0.00,Wunderground v.1.15,2013-02-12 16:30:00,
2013-02-12 11:35:00,50.6,34.6,30.09,North,358,2.0,3.0,54,0.00,,,0.00,Wunderground v.1.15,2013-02-12 16:35:00,
2013-02-12 11:44:00,50.6,35.0,30.10,East,79,2.0,2.0,55,0.00,,,0.00,Wunderground v.1.15,2013-02-12 16:44:00,
2013-02-12 11:49:00,51.0,34.5,30.10,NNE,28,1.0,1.0,53,0.00,,,0.00,Wunderground v.1.15,2013-02-12 16:49:00,
2013-02-12 11:55:00,51.1,34.5,30.10,NNE,28,2.0,2.0,53,0.00,,,0.00,Wunderground v.1.15,2013-02-12 16:55:00,
2013-02-12 12:00:00,51.0,34.9,30.09,NNW,347,2.0,2.0,54,0.00,,,0.00,Wunderground v.1.15,2013-02-12 17:00:00,
2013-02-12 12:10:00,51.4,34.3,30.08,NNE,23,2.0,4.0,52,0.00,,,0.00,Wunderground v.1.15,2013-02-12 17:10:00,
2013-02-12 12:15:00,51.1,33.6,30.09,NE,54,3.0,4.0,51,0.00,,,0.00,Wunderground v.1.15,2013-02-12 17:15:00,
2013-02-12 12:20:00,51.1,33.6,30.08,ENE,71,2.0,2.0,51,0.00,,,0.00,Wunderground v.1.15,2013-02-12 17:20:00,
2013-02-12 12:29:00,51.3,33.8,30.07,NNW,327,1.0,1.0,51,0.00,,,0.00,Wunderground v.1.15,2013-02-12 17:29:00,
2013-02-12 12:39:00,51.3,33.3,30.08,North,357,2.0,2.0,50,0.00,,,0.00,Wunderground v.1.15,2013-02-12 17:39:00,
2013-02-12 12:44:00,51.1,33.6,30.08,NNW,328,1.0,4.0,51,0.00,,,0.00,Wunderground v.1.15,2013-02-12 17:44:00,
2013-02-12 12:50:00,51.1,34.1,30.08,North,352,1.0,3.0,52,0.00,,,0.00,Wunderground v.1.15,2013-02-12 17:50:00,
2013-02-12 12:55:00,50.9,34.8,30.07,North,4,2.0,3.0,54,0.00,,,0.00,Wunderground v.1.15,2013-02-12 17:55:00,
2013-02-12 13:00:00,50.9,34.8,30.07,NNE,31,1.0,1.0,54,0.00,,,0.00,Wunderground v.1.15,2013-02-12 18:00:00,
2013-02-12 13:10:00,50.9,35.3,30.06,ENE,58,1.0,1.0,55,0.00,,,0.00,Wunderground v.1.15,2013-02-12 18:10:00,
2013-02-12 13:15:00,50.8,34.3,30.04,ENE,72,1.0,2.0,53,0.00,,,0.00,Wunderground v.1.15,2013-02-12 18:15:00,
2013-02-12 13:24:00,51.2,35.1,30.03,NNE,26,3.0,3.0,54,0.00,,,0.00,Wunderground v.1.15,2013-02-12 18:24:00,
2013-02-12 13:29:00,51.7,34.6,30.02,North,360,3.0,3.0,52,0.00,,,0.00,Wunderground v.1.15,2013-02-12 18:29:00,
2013-02-12 13:35:00,52.0,35.9,30.02,NE,36,2.0,3.0,54,0.00,,,0.00,Wunderground v.1.15,2013-02-12 18:35:00,
2013-02-12 13:45:00,51.7,34.6,30.01,NNE,17,2.0,2.0,52,0.00,,,0.00,Wunderground v.1.15,2013-02-12 18:45:00,
2013-02-12 13:50:00,51.4,33.4,30.02,West,261,2.0,2.0,50,0.00,,,0.00,Wunderground v.1.15,2013-02-12 18:50:00,
2013-02-12 13:55:00,51.3,34.3,30.04,North,4,1.0,2.0,52,0.00,,,0.00,Wunderground v.1.15,2013-02-12 18:55:00,
2013-02-12 14:00:00,51.0,34.9,30.05,North,4,0.0,0.0,54,0.00,,,0.00,Wunderground v.1.15,2013-02-12 19:00:00,
2013-02-12 14:09:00,50.7,34.6,30.03,NE,36,0.0,0.0,54,0.00,,,0.00,Wunderground v.1.15,2013-02-12 19:09:00,
2013-02-12 14:19:00,50.4,34.8,30.03,NE,36,0.0,0.0,55,0.00,,,0.00,Wunderground v.1.15,2013-02-12 19:19:00,
2013-02-12 14:25:00,50.5,36.7,30.03,NE,36,0.0,0.0,59,0.00,,,0.00,Wunderground v.1.15,2013-02-12 19:25:00,
2013-02-12 14:30:00,50.9,35.3,30.02,NE,36,0.0,0.0,55,0.00,,,0.00,Wunderground v.1.15,2013-02-12 19:30:00,
2013-02-12 14:35:00,51.0,36.7,30.02,NE,36,0.0,0.0,58,0.00,,,0.00,Wunderground v.1.15,2013-02-12 19:35:00,
2013-02-12 14:40:00,50.5,36.7,30.04,NE,36,0.0,0.0,59,0.00,,,0.00,Wunderground v.1.15,2013-02-12 19:40:00,
2013-02-12 14:45:00,50.4,35.7,30.02,NNE,26,0.0,1.0,57,0.00,,,0.00,Wunderground v.1.15,2013-02-12 19:45:00,
2013-02-12 14:54:00,50.8,35.7,30.01,NNE,26,0.0,0.0,56,0.00,,,0.00,Wunderground v.1.15,2013-02-12 19:54:00,
2013-02-12 15:00:00,50.8,35.2,30.01,NNE,26,0.0,0.0,55,0.00,,,0.00,Wunderground v.1.15,2013-02-12 20:00:00,
2013-02-12 15:10:00,50.8,35.2,30.02,NNE,17,0.0,1.0,55,0.00,,,0.00,Wunderground v.1.15,2013-02-12 20:10:00,
2013-02-12 15:15:00,50.7,35.6,30.01,NNE,18,0.0,1.0,56,0.00,,,0.00,Wunderground v.1.15,2013-02-12 20:15:00,
2013-02-12 15:20:00,50.6,38.1,30.01,NNE,18,0.0,0.0,62,0.00,,,0.00,Wunderground v.1.15,2013-02-12 20:20:00,
2013-02-12 15:30:00,50.8,36.1,30.01,WNW,298,0.0,0.0,57,0.00,,,0.00,Wunderground v.1.15,2013-02-12 20:30:00,
2013-02-12 15:39:00,50.8,36.1,30.01,WNW,298,0.0,1.0,57,0.00,,,0.00,Wunderground v.1.15,2013-02-12 20:39:00,
2013-02-12 15:44:00,50.8,36.5,30.00,WNW,298,0.0,1.0,58,0.00,,,0.00,Wunderground v.1.15,2013-02-12 20:44:00,
2013-02-12 15:50:00,50.8,37.4,30.00,WNW,298,1.0,1.0,60,0.00,,,0.00,Wunderground v.1.15,2013-02-12 20:50:00,
2013-02-12 15:55:00,50.8,36.1,29.99,NNW,347,1.0,1.0,57,0.00,,,0.00,Wunderground v.1.15,2013-02-12 20:55:00,
2013-02-12 16:00:00,50.8,36.1,29.99,NW,305,1.0,1.0,57,0.00,,,0.00,Wunderground v.1.15,2013-02-12 21:00:00,
2013-02-12 16:10:00,50.6,35.9,29.99,NW,305,0.0,0.0,57,0.00,,,0.00,Wunderground v.1.15,2013-02-12 21:10:00,
2013-02-12 16:19:00,50.7,38.1,29.98,NW,305,0.0,1.0,62,0.00,,,0.00,Wunderground v.1.15,2013-02-12 21:19:00,
2013-02-12 16:24:00,50.6,36.8,29.97,NW,319,1.0,1.0,59,0.00,,,0.00,Wunderground v.1.15,2013-02-12 21:24:00,
2013-02-12 16:29:00,50.5,38.0,29.97,NW,319,1.0,1.0,62,0.00,,,0.00,Wunderground v.1.15,2013-02-12 21:29:00,
2013-02-12 16:39:00,50.3,36.5,29.96,NNE,22,1.0,1.0,59,0.00,,,0.00,Wunderground v.1.15,2013-02-12 21:39:00,
2013-02-12 16:45:00,50.2,36.8,29.95,NNE,22,1.0,1.0,60,0.00,,,0.00,Wunderground v.1.15,2013-02-12 21:45:00,
2013-02-12 16:50:00,50.1,36.3,29.96,NNE,25,1.0,4.0,59,0.00,,,0.00,Wunderground v.1.15,2013-02-12 21:50:00,
2013-02-12 16:55:00,50.0,36.7,29.96,NNE,25,1.0,4.0,60,0.00,,,0.00,Wunderground v.1.15,2013-02-12 21:55:00,
2013-02-12 17:00:00,50.0,38.3,29.95,NNE,25,0.0,0.0,64,0.00,,,0.00,Wunderground v.1.15,2013-02-12 22:00:00,
2013-02-12 17:10:00,49.7,36.4,29.95,NNE,25,0.0,1.0,60,0.00,,,0.00,Wunderground v.1.15,2013-02-12 22:10:00,
2013-02-12 17:19:00,49.5,36.6,29.94,ENE,58,1.0,1.0,61,0.00,,,0.00,Wunderground v.1.15,2013-02-12 22:19:00,
2013-02-12 17:24:00,49.4,36.9,29.92,ENE,58,0.0,1.0,62,0.00,,,0.00,Wunderground v.1.15,2013-02-12 22:24:00,
2013-02-12 17:29:00,49.2,36.3,29.92,North,2,0.0,1.0,61,0.00,,,0.00,Wunderground v.1.15,2013-02-12 22:29:00,
2013-02-12 17:35:00,49.1,35.8,29.93,NW,304,0.0,1.0,60,0.00,,,0.00,Wunderground v.1.15,2013-02-12 22:35:00,
2013-02-12 17:45:00,49.0,38.5,29.96,NW,304,0.0,0.0,67,0.00,,,0.00,Wunderground v.1.15,2013-02-12 22:45:00,
2013-02-12 17:50:00,49.0,38.9,29.96,NW,304,0.0,0.0,68,0.00,,,0.00,Wunderground v.1.15,2013-02-12 22:50:00,
2013-02-12 17:55:00,48.9,38.8,29.97,NW,304,0.0,0.0,68,0.00,,,0.00,Wunderground v.1.15,2013-02-12 22:55:00,
2013-02-12 18:00:00,48.8,38.7,29.97,NW,304,0.0,0.0,68,0.00,,,0.00,Wunderground v.1.15,2013-02-12 23:00:00,
2013-02-12 18:09:00,48.6,39.6,29.97,NW,304,0.0,0.0,71,0.00,,,0.00,Wunderground v.1.15,2013-02-12 23:09:00,
2013-02-12 18:19:00,48.3,40.0,29.97,NW,304,0.0,0.0,73,0.00,,,0.00,Wunderground v.1.15,2013-02-12 23:19:00,
2013-02-12 18:24:00,48.1,39.5,29.96,NW,304,0.0,0.0,72,0.00,,,0.00,Wunderground v.1.15,2013-02-12 23:24:00,
2013-02-12 18:30:00,47.9,40.4,29.96,NW,304,0.0,0.0,75,0.00,,,0.00,Wunderground v.1.15,2013-02-12 23:30:00,
2013-02-12 18:35:00,47.8,40.9,29.96,NW,304,0.0,0.0,77,0.00,,,0.00,Wunderground v.1.15,2013-02-12 23:35:00,
2013-02-12 18:40:00,47.5,38.9,29.96,NW,304,0.0,0.0,72,0.00,,,0.00,Wunderground v.1.15,2013-02-12 23:40:00,
2013-02-12 18:45:00,47.3,40.5,29.96,NW,304,0.0,0.0,77,0.00,,,0.00,Wunderground v.1.15,2013-02-12 23:45:00,
2013-02-12 18:55:00,47.0,40.8,29.95,NW,304,0.0,0.0,79,0.00,,,0.00,Wunderground v.1.15,2013-02-12 23:55:00,
2013-02-12 19:04:00,46.5,41.6,29.95,NW,304,0.0,0.0,83,0.00,,,0.00,Wunderground v.1.15,2013-02-13 00:04:00,
2013-02-12 19:10:00,46.3,41.7,29.94,NW,304,0.0,0.0,84,0.00,,,0.01,Wunderground v.1.15,2013-02-13 00:10:00,
2013-02-12 19:15:00,46.1,41.8,29.94,NW,304,0.0,0.0,85,0.00,,,0.01,Wunderground v.1.15,2013-02-13 00:15:00,
2013-02-12 19:20:00,45.9,41.9,29.93,NW,304,0.0,0.0,86,0.00,,,0.01,Wunderground v.1.15,2013-02-13 00:20:00,
2013-02-12 19:25:00,45.6,42.0,29.93,NW,304,0.0,0.0,87,0.00,,,0.01,Wunderground v.1.15,2013-02-13 00:25:00,
2013-02-12 19:30:00,45.2,41.9,29.92,NW,304,0.0,0.0,88,0.00,,,0.01,Wunderground v.1.15,2013-02-13 00:30:00,
2013-02-12 19:39:00,44.7,41.7,29.93,East,85,1.0,1.0,89,0.00,,,0.02,Wunderground v.1.15,2013-02-13 00:39:00,
2013-02-12 19:44:00,44.6,41.8,29.94,East,79,1.0,1.0,90,0.07,,,0.03,Wunderground v.1.15,2013-02-13 00:44:00,
2013-02-12 19:48:00,44.5,41.7,29.92,ENE,68,2.0,-999.0,90,0.03,,,0.06,Wunderground v.1.15,2013-02-13 00:48:00,
2013-02-12 19:50:00,44.3,41.6,29.93,NE,42,2.0,2.0,90,0.07,,,0.03,Wunderground v.1.15,2013-02-13 00:50:00,
2013-02-12 19:53:00,44.3,41.6,29.94,West,270,1.0,-999.0,90,0.03,,,0.06,Wunderground v.1.15,2013-02-13 00:53:00,
2013-02-12 19:55:00,44.2,41.5,29.93,ENE,63,2.0,2.0,90,0.04,,,0.03,Wunderground v.1.15,2013-02-13 00:55:00,
2013-02-12 19:58:00,44.2,41.5,29.91,ENE,68,1.0,-999.0,90,0.03,,,0.06,Wunderground v.1.15,2013-02-13 00:58:00,
2013-02-12 20:00:00,44.0,41.3,29.91,ENE,65,1.0,1.0,90,0.00,,,0.03,Wunderground v.1.15,2013-02-13 01:00:00,
2013-02-12 20:03:00,44.0,41.5,29.91,ENE,68,0.0,-999.0,91,0.03,,,0.06,Wunderground v.1.15,2013-02-13 01:03:00,
2013-02-12 20:08:00,43.9,41.2,29.91,N/A,-737280,0.0,-999.0,90,0.03,,,0.06,Wunderground v.1.15,2013-02-13 01:08:00,
2013-02-12 20:10:00,43.8,41.1,29.91,ENE,65,0.0,0.0,90,0.00,,,0.04,Wunderground v.1.15,2013-02-13 01:10:00,
2013-02-12 20:13:00,43.8,41.3,29.90,N/A,-737280,0.0,-999.0,91,0.03,,,0.06,Wunderground v.1.15,2013-02-13 01:13:00,
2013-02-12 20:18:00,43.7,41.0,29.91,N/A,-737280,0.0,-999.0,90,0.03,,,0.06,Wunderground v.1.15,2013-02-13 01:18:00,
2013-02-12 20:19:00,43.6,40.9,29.91,ENE,65,0.0,0.0,90,0.00,,,0.04,Wunderground v.1.15,2013-02-13 01:19:00,
2013-02-12 20:23:00,43.6,41.1,29.91,N/A,-737280,0.0,-999.0,91,0.03,,,0.06,Wunderground v.1.15,2013-02-13 01:23:00,
2013-02-12 20:24:00,43.6,41.1,29.91,ENE,65,0.0,0.0,91,0.00,,,0.05,Wunderground v.1.15,2013-02-13 01:24:00,
2013-02-12 20:28:00,43.6,41.1,29.91,N/A,-737280,0.0,-999.0,91,0.04,,,0.06,Wunderground v.1.15,2013-02-13 01:28:00,
2013-02-12 20:33:00,43.5,41.0,29.91,N/A,-737280,0.0,-999.0,91,0.03,,,0.06,Wunderground v.1.15,2013-02-13 01:33:00,
2013-02-12 20:38:00,43.5,41.3,29.91,ENE,68,0.0,-999.0,92,0.03,,,0.06,Wunderground v.1.15,2013-02-13 01:38:00,
2013-02-12 20:43:00,43.4,41.2,29.90,ENE,68,1.0,-999.0,92,0.02,,,0.06,Wunderground v.1.15,2013-02-13 01:43:00,
2013-02-12 20:48:00,43.3,41.1,29.91,N/A,-737280,0.0,-999.0,92,0.02,,,0.06,Wunderground v.1.15,2013-02-13 01:48:00,
2013-02-12 20:53:00,43.3,41.4,29.91,N/A,-737280,0.0,-999.0,93,0.02,,,0.06,Wunderground v.1.15,2013-02-13 01:53:00,
2013-02-12 20:58:00,43.2,41.3,29.91,ENE,68,0.0,-999.0,93,0.02,,,0.06,Wunderground v.1.15,2013-02-13 01:58:00,
2013-02-12 21:03:00,43.2,41.3,29.92,N/A,-737280,0.0,-999.0,93,0.02,,,0.06,Wunderground v.1.15,2013-02-13 02:03:00,
2013-02-12 21:08:00,43.2,41.3,29.91,ENE,68,0.0,-999.0,93,0.01,,,0.06,Wunderground v.1.15,2013-02-13 02:08:00,
2013-02-12 21:13:00,43.1,41.2,29.92,N/A,-737280,0.0,-999.0,93,0.01,,,0.06,Wunderground v.1.15,2013-02-13 02:13:00,
2013-02-12 21:18:00,43.1,41.2,29.92,N/A,-737280,0.0,-999.0,93,0.01,,,0.06,Wunderground v.1.15,2013-02-13 02:18:00,
2013-02-12 21:23:00,43.1,41.2,29.92,N/A,-737280,0.0,-999.0,93,0.01,,,0.06,Wunderground v.1.15,2013-02-13 02:23:00,
2013-02-12 21:28:00,43.0,41.1,29.91,ENE,68,0.0,-999.0,93,0.00,,,0.06,Wunderground v.1.15,2013-02-13 02:28:00,
2013-02-12 21:33:00,42.9,41.3,29.91,ENE,68,0.0,-999.0,94,0.00,,,0.06,Wunderground v.1.15,2013-02-13 02:33:00,
2013-02-12 21:38:00,42.9,41.3,29.89,ENE,68,0.0,-999.0,94,0.00,,,0.06,Wunderground v.1.15,2013-02-13 02:38:00,
2013-02-12 21:43:00,42.9,41.3,29.89,N/A,-737280,0.0,-999.0,94,0.00,,,0.06,Wunderground v.1.15,2013-02-13 02:43:00,
2013-02-12 21:48:00,42.9,41.3,29.88,ENE,68,0.0,-999.0,94,0.00,,,0.06,Wunderground v.1.15,2013-02-13 02:48:00,
2013-02-12 21:53:00,42.8,41.2,29.89,ENE,68,0.0,-999.0,94,0.00,,,0.06,Wunderground v.1.15,2013-02-13 02:53:00,
2013-02-12 21:58:00,42.8,41.2,29.88,ENE,68,0.0,-999.0,94,0.01,,,0.06,Wunderground v.1.15,2013-02-13 02:58:00,
2013-02-12 22:03:00,42.7,41.1,29.88,N/A,-737280,0.0,-999.0,94,0.01,,,0.06,Wunderground v.1.15,2013-02-13 03:03:00,
2013-02-12 22:08:00,42.7,41.1,29.88,N/A,-737280,0.0,-999.0,94,0.01,,,0.06,Wunderground v.1.15,2013-02-13 03:08:00,
2013-02-12 22:13:00,42.6,41.0,29.88,N/A,-737280,0.0,-999.0,94,0.01,,,0.06,Wunderground v.1.15,2013-02-13 03:13:00,
2013-02-12 22:18:00,42.6,41.0,29.88,N/A,-737280,0.0,-999.0,94,0.01,,,0.06,Wunderground v.1.15,2013-02-13 03:18:00,
2013-02-12 22:23:00,42.6,41.0,29.89,N/A,-737280,0.0,-999.0,94,0.01,,,0.06,Wunderground v.1.15,2013-02-13 03:23:00,
2013-02-12 22:28:00,42.5,40.9,29.88,N/A,-737280,0.0,-999.0,94,0.01,,,0.06,Wunderground v.1.15,2013-02-13 03:28:00,
2013-02-12 22:33:00,42.4,40.8,29.88,N/A,-737280,0.0,-999.0,94,0.01,,,0.06,Wunderground v.1.15,2013-02-13 03:33:00,
2013-02-12 22:38:00,42.4,40.8,29.89,N/A,-737280,0.0,-999.0,94,0.01,,,0.06,Wunderground v.1.15,2013-02-13 03:38:00,
2013-02-12 22:43:00,42.4,40.8,29.88,N/A,-737280,0.0,-999.0,94,0.01,,,0.06,Wunderground v.1.15,2013-02-13 03:43:00,
2013-02-12 22:48:00,42.4,40.8,29.88,N/A,-737280,0.0,-999.0,94,0.01,,,0.06,Wunderground v.1.15,2013-02-13 03:48:00,
2013-02-12 22:53:00,42.3,40.7,29.88,N/A,-737280,0.0,-999.0,94,0.01,,,0.06,Wunderground v.1.15,2013-02-13 03:53:00,
2013-02-12 22:58:00,42.3,41.0,29.88,N/A,-737280,0.0,-999.0,95,0.00,,,0.06,Wunderground v.1.15,2013-02-13 03:58:00,
2013-02-12 23:03:00,42.3,41.0,29.88,N/A,-737280,0.0,-999.0,95,0.00,,,0.06,Wunderground v.1.15,2013-02-13 04:03:00,
2013-02-12 23:08:00,42.3,41.0,29.88,N/A,-737280,0.0,-999.0,95,0.00,,,0.06,Wunderground v.1.15,2013-02-13 04:08:00,
2013-02-12 23:13:00,42.3,41.0,29.87,N/A,-737280,0.0,-999.0,95,0.00,,,0.06,Wunderground v.1.15,2013-02-13 04:13:00,
2013-02-12 23:18:00,42.3,41.0,29.87,N/A,-737280,0.0,-999.0,95,0.00,,,0.06,Wunderground v.1.15,2013-02-13 04:18:00,
2013-02-12 23:23:00,42.3,41.0,29.86,N/A,-737280,0.0,-999.0,95,0.00,,,0.06,Wunderground v.1.15,2013-02-13 04:23:00,
2013-02-12 23:28:00,42.4,41.1,29.85,N/A,-737280,0.0,-999.0,95,0.00,,,0.06,Wunderground v.1.15,2013-02-13 04:28:00,
2013-02-12 23:33:00,42.4,41.1,29.84,N/A,-737280,0.0,-999.0,95,0.00,,,0.06,Wunderground v.1.15,2013-02-13 04:33:00,
2013-02-12 23:38:00,42.4,41.1,29.84,N/A,-737280,0.0,-999.0,95,0.00,,,0.06,Wunderground v.1.15,2013-02-13 04:38:00,
2013-02-12 23:43:00,42.4,41.1,29.83,N/A,-737280,0.0,-999.0,95,0.00,,,0.06,Wunderground v.1.15,2013-02-13 04:43:00,
2013-02-12 23:48:00,42.4,41.1,29.83,N/A,-737280,0.0,-999.0,95,0.00,,,0.06,Wunderground v.1.15,2013-02-13 04:48:00,
2013-02-12 23:53:00,42.3,41.0,29.83,ENE,68,0.0,-999.0,95,0.00,,,0.06,Wunderground v.1.15,2013-02-13 04:53:00,
2013-02-12 23:58:00,42.3,41.0,29.83,N/A,-737280,0.0,-999.0,95,0.00,,,0.06,Wunderground v.1.15,2013-02-13 04:58:00,